Terminal Aerodrome Forecast
Issued by NWS

Home | Current Version | Previous Version | Text Only | Print | Product List | Glossary On
Versions: 1 2 3 4 5 6 7 8 9 10 11 12 13 14 15
000
FTUS42 KFFC 181100
TAFRYY
TAF
KRYY 181123Z 1812/1912 36004KT P6SM SCT010
      TEMPO 1812/1814 6SM BR BKN008
     FM181400 03005KT P6SM SCT025
     FM181700 34006KT P6SM SCT045
     FM190500 02005KT P6SM SCT025
     FM190900 05005KT P6SM OVC010=

USA.gov is the U.S. government's official web portal to all federal, state and local government web resources and services.